sensor_id;sensor_type;location;lat;lon;timestamp;pressure;altitude;pressure_sealevel;temperature;humidity
7962;BME280;4026;43.652;24.906;2022-08-19T00:01:16;98721.53;;;24.48;69.93
7962;BME280;4026;43.652;24.906;2022-08-19T00:03:43;98722.78;;;24.39;70.71
7962;BME280;4026;43.652;24.906;2022-08-19T00:06:10;98714.94;;;24.39;70.57
7962;BME280;4026;43.652;24.906;2022-08-19T00:08:37;98711.72;;;24.44;70.29
7962;BME280;4026;43.652;24.906;2022-08-19T00:11:04;98716.97;;;24.44;70.02
7962;BME280;4026;43.652;24.906;2022-08-19T00:13:31;98721.34;;;24.43;69.94
7962;BME280;4026;43.652;24.906;2022-08-19T00:15:59;98719.56;;;24.44;69.92
7962;BME280;4026;43.652;24.906;2022-08-19T00:18:26;98724.34;;;24.40;69.65
7962;BME280;4026;43.652;24.906;2022-08-19T00:20:53;98726.53;;;24.56;68.72
7962;BME280;4026;43.652;24.906;2022-08-19T00:23:20;98730.59;;;24.52;69.03
7962;BME280;4026;43.652;24.906;2022-08-19T00:25:47;98733.75;;;24.54;68.56
7962;BME280;4026;43.652;24.906;2022-08-19T00:28:14;98731.16;;;24.54;68.74
7962;BME280;4026;43.652;24.906;2022-08-19T00:30:41;98732.19;;;24.53;68.42
7962;BME280;4026;43.652;24.906;2022-08-19T00:33:09;98728.34;;;24.49;68.58
7962;BME280;4026;43.652;24.906;2022-08-19T00:35:36;98728.59;;;24.48;68.48
7962;BME280;4026;43.652;24.906;2022-08-19T00:38:04;98735.41;;;24.42;68.47
7962;BME280;4026;43.652;24.906;2022-08-19T00:40:32;98732.59;;;24.50;68.13
7962;BME280;4026;43.652;24.906;2022-08-19T00:42:59;98728.34;;;24.49;68.17
7962;BME280;4026;43.652;24.906;2022-08-19T00:45:28;98733.00;;;24.47;67.88
7962;BME280;4026;43.652;24.906;2022-08-19T00:47:56;98724.56;;;24.45;67.97
7962;BME280;4026;43.652;24.906;2022-08-19T00:50:25;98725.38;;;24.39;68.33
7962;BME280;4026;43.652;24.906;2022-08-19T00:52:53;98729.44;;;24.35;68.35
7962;BME280;4026;43.652;24.906;2022-08-19T00:55:22;98727.56;;;24.42;67.52
7962;BME280;4026;43.652;24.906;2022-08-19T00:57:53;98730.81;;;24.44;67.39
7962;BME280;4026;43.652;24.906;2022-08-19T01:00:23;98732.19;;;24.40;67.16
7962;BME280;4026;43.652;24.906;2022-08-19T01:02:52;98727.81;;;24.34;66.98
7962;BME280;4026;43.652;24.906;2022-08-19T01:05:22;98727.00;;;24.33;67.03
7962;BME280;4026;43.652;24.906;2022-08-19T01:07:51;98730.19;;;24.42;66.29
7962;BME280;4026;43.652;24.906;2022-08-19T01:10:20;98728.22;;;24.31;66.67
7962;BME280;4026;43.652;24.906;2022-08-19T01:12:48;98726.22;;;24.33;66.72
7962;BME280;4026;43.652;24.906;2022-08-19T01:15:18;98725.38;;;24.39;66.15
7962;BME280;4026;43.652;24.906;2022-08-19T01:17:46;98726.22;;;24.33;66.41
7962;BME280;4026;43.652;24.906;2022-08-19T01:20:16;98724.25;;;24.22;66.63
7962;BME280;4026;43.652;24.906;2022-08-19T01:22:47;98724.69;;;24.18;66.51
7962;BME280;4026;43.652;24.906;2022-08-19T01:25:17;98734.91;;;24.20;66.73
7962;BME280;4026;43.652;24.906;2022-08-19T01:27:46;98744.75;;;24.25;66.37
7962;BME280;4026;43.652;24.906;2022-08-19T01:30:15;98728.88;;;24.20;66.30
7962;BME280;4026;43.652;24.906;2022-08-19T01:32:43;98739.16;;;24.14;66.67
7962;BME280;4026;43.652;24.906;2022-08-19T01:35:12;98739.16;;;24.08;66.75
7962;BME280;4026;43.652;24.906;2022-08-19T01:37:43;98742.59;;;24.08;67.24
7962;BME280;4026;43.652;24.906;2022-08-19T01:40:12;98743.22;;;24.04;67.34
7962;BME280;4026;43.652;24.906;2022-08-19T01:42:39;98745.22;;;24.02;67.09
7962;BME280;4026;43.652;24.906;2022-08-19T01:45:07;98739.56;;;24.11;66.71
7962;BME280;4026;43.652;24.906;2022-08-19T01:47:35;98743.19;;;24.10;66.79
7962;BME280;4026;43.652;24.906;2022-08-19T01:50:03;98743.38;;;24.15;66.12
7962;BME280;4026;43.652;24.906;2022-08-19T01:52:31;98746.44;;;23.99;66.39
7962;BME280;4026;43.652;24.906;2022-08-19T01:54:58;98747.25;;;23.93;67.18
7962;BME280;4026;43.652;24.906;2022-08-19T01:57:26;98749.25;;;23.91;67.18
7962;BME280;4026;43.652;24.906;2022-08-19T01:59:53;98743.25;;;23.90;67.22
7962;BME280;4026;43.652;24.906;2022-08-19T02:02:20;98742.41;;;24.03;66.81
7962;BME280;4026;43.652;24.906;2022-08-19T02:04:47;98750.66;;;24.00;66.62
7962;BME280;4026;43.652;24.906;2022-08-19T02:07:14;98751.28;;;23.95;66.75
7962;BME280;4026;43.652;24.906;2022-08-19T02:09:41;98756.94;;;23.86;67.19
7962;BME280;4026;43.652;24.906;2022-08-19T02:12:08;98754.09;;;23.94;66.72
7962;BME280;4026;43.652;24.906;2022-08-19T02:14:36;98755.31;;;23.91;66.58
7962;BME280;4026;43.652;24.906;2022-08-19T02:17:03;98756.28;;;24.04;65.88
7962;BME280;4026;43.652;24.906;2022-08-19T02:19:30;98755.47;;;23.97;66.63
7962;BME280;4026;43.652;24.906;2022-08-19T02:21:59;98766.94;;;23.95;66.23
7962;BME280;4026;43.652;24.906;2022-08-19T02:24:26;98760.13;;;23.88;66.64
7962;BME280;4026;43.652;24.906;2022-08-19T02:26:53;98768.16;;;23.93;66.56
7962;BME280;4026;43.652;24.906;2022-08-19T02:29:20;98768.16;;;23.93;66.57
7962;BME280;4026;43.652;24.906;2022-08-19T02:31:48;98773.78;;;23.90;66.55
7962;BME280;4026;43.652;24.906;2022-08-19T02:34:16;98769.78;;;23.87;66.44
7962;BME280;4026;43.652;24.906;2022-08-19T02:36:43;98766.97;;;23.89;66.45
7962;BME280;4026;43.652;24.906;2022-08-19T02:39:10;98773.78;;;23.90;66.48
7962;BME280;4026;43.652;24.906;2022-08-19T02:41:36;98773.22;;;23.75;67.20
7962;BME280;4026;43.652;24.906;2022-08-19T02:44:03;98772.19;;;23.76;67.27
7962;BME280;4026;43.652;24.906;2022-08-19T02:46:32;98777.22;;;23.77;67.13
7962;BME280;4026;43.652;24.906;2022-08-19T02:49:04;98774.19;;;23.73;67.49
7962;BME280;4026;43.652;24.906;2022-08-19T02:51:33;98771.22;;;23.77;66.81
7962;BME280;4026;43.652;24.906;2022-08-19T02:54:00;98767.59;;;23.78;66.94
7962;BME280;4026;43.652;24.906;2022-08-19T02:56:27;98775.81;;;23.75;66.68
7962;BME280;4026;43.652;24.906;2022-08-19T02:58:57;98779.84;;;23.70;66.70
7962;BME280;4026;43.652;24.906;2022-08-19T03:01:26;98779.63;;;23.65;67.24
7962;BME280;4026;43.652;24.906;2022-08-19T03:03:55;98775.41;;;23.64;67.07
7962;BME280;4026;43.652;24.906;2022-08-19T03:06:23;98773.41;;;23.66;66.97
7962;BME280;4026;43.652;24.906;2022-08-19T03:08:51;98773.00;;;23.63;67.28
7962;BME280;4026;43.652;24.906;2022-08-19T03:11:20;98785.06;;;23.57;67.77
7962;BME280;4026;43.652;24.906;2022-08-19T03:13:48;98782.47;;;23.50;68.02
7962;BME280;4026;43.652;24.906;2022-08-19T03:16:16;98794.69;;;23.50;68.34
7962;BME280;4026;43.652;24.906;2022-08-19T03:18:44;98786.25;;;23.55;68.04
7962;BME280;4026;43.652;24.906;2022-08-19T03:21:15;98785.47;;;23.47;68.05
7962;BME280;4026;43.652;24.906;2022-08-19T03:23:43;98782.63;;;23.56;67.76
7962;BME280;4026;43.652;24.906;2022-08-19T03:26:10;98789.28;;;23.52;67.89
7962;BME280;4026;43.652;24.906;2022-08-19T03:28:38;98788.28;;;23.46;68.07
7962;BME280;4026;43.652;24.906;2022-08-19T03:31:06;98791.50;;;23.48;67.93
7962;BME280;4026;43.652;24.906;2022-08-19T03:33:34;98788.28;;;23.39;68.27
7962;BME280;4026;43.652;24.906;2022-08-19T03:36:05;98796.28;;;23.38;68.63
7962;BME280;4026;43.652;24.906;2022-08-19T03:38:33;98795.09;;;23.40;68.48
7962;BME280;4026;43.652;24.906;2022-08-19T03:41:05;98802.91;;;23.40;68.43
7962;BME280;4026;43.652;24.906;2022-08-19T03:43:34;98797.91;;;23.45;68.08
7962;BME280;4026;43.652;24.906;2022-08-19T03:46:03;98807.16;;;23.48;68.79
7962;BME280;4026;43.652;24.906;2022-08-19T03:48:31;98807.94;;;23.55;68.39
7962;BME280;4026;43.652;24.906;2022-08-19T03:50:59;98817.19;;;23.51;68.46
7962;BME280;4026;43.652;24.906;2022-08-19T03:53:27;98826.59;;;23.52;68.36
7962;BME280;4026;43.652;24.906;2022-08-19T03:55:54;98815.16;;;23.53;68.49
7962;BME280;4026;43.652;24.906;2022-08-19T03:58:23;98821.59;;;23.57;68.58
7962;BME280;4026;43.652;24.906;2022-08-19T04:00:50;98817.75;;;23.53;68.94
7962;BME280;4026;43.652;24.906;2022-08-19T04:03:17;98816.78;;;23.54;68.96
7962;BME280;4026;43.652;24.906;2022-08-19T04:05:46;98824.81;;;23.59;68.71
7962;BME280;4026;43.652;24.906;2022-08-19T04:08:15;98829.41;;;23.57;68.98
7962;BME280;4026;43.652;24.906;2022-08-19T04:10:46;98823.41;;;23.63;68.78
7962;BME280;4026;43.652;24.906;2022-08-19T04:13:13;98829.22;;;23.65;69.20
7962;BME280;4026;43.652;24.906;2022-08-19T04:15:43;98827.19;;;23.67;68.87
7962;BME280;4026;43.652;24.906;2022-08-19T04:18:12;98832.03;;;23.84;68.04
7962;BME280;4026;43.652;24.906;2022-08-19T04:20:41;98831.84;;;23.72;69.26
7962;BME280;4026;43.652;24.906;2022-08-19T04:23:08;98829.03;;;23.87;68.64
7962;BME280;4026;43.652;24.906;2022-08-19T04:25:37;98832.84;;;23.78;69.14
7962;BME280;4026;43.652;24.906;2022-08-19T04:28:04;98843.28;;;23.78;69.48
7962;BME280;4026;43.652;24.906;2022-08-19T04:30:36;98840.84;;;23.96;68.50
7962;BME280;4026;43.652;24.906;2022-08-19T04:33:05;98840.25;;;24.01;68.72
7962;BME280;4026;43.652;24.906;2022-08-19T04:35:35;98844.44;;;24.15;67.85
7962;BME280;4026;43.652;24.906;2022-08-19T04:38:02;98841.41;;;24.25;68.34
7962;BME280;4026;43.652;24.906;2022-08-19T04:40:29;98835.97;;;24.33;68.42
7962;BME280;4026;43.652;24.906;2022-08-19T04:43:14;98835.09;;;24.59;66.99
7962;BME280;4026;43.652;24.906;2022-08-19T04:45:41;98836.66;;;24.67;66.46
7962;BME280;4026;43.652;24.906;2022-08-19T04:48:10;98831.00;;;24.76;67.11
7962;BME280;4026;43.652;24.906;2022-08-19T04:50:40;98828.28;;;24.96;66.65
7962;BME280;4026;43.652;24.906;2022-08-19T04:53:08;98825.56;;;25.10;65.26
7962;BME280;4026;43.652;24.906;2022-08-19T04:55:38;98823.91;;;25.22;64.63
7962;BME280;4026;43.652;24.906;2022-08-19T04:58:05;98830.56;;;25.49;64.11
7962;BME280;4026;43.652;24.906;2022-08-19T05:00:32;98829.78;;;25.67;64.49
7962;BME280;4026;43.652;24.906;2022-08-19T05:02:59;98830.25;;;25.89;61.56
7962;BME280;4026;43.652;24.906;2022-08-19T05:05:27;98831.72;;;26.04;62.22
7962;BME280;4026;43.652;24.906;2022-08-19T05:07:54;98832.94;;;26.38;58.88
7962;BME280;4026;43.652;24.906;2022-08-19T05:10:21;98831.28;;;26.62;59.93
7962;BME280;4026;43.652;24.906;2022-08-19T05:12:48;98834.16;;;26.72;57.67
7962;BME280;4026;43.652;24.906;2022-08-19T05:15:14;98826.22;;;26.91;56.27
7962;BME280;4026;43.652;24.906;2022-08-19T05:17:41;98837.13;;;27.06;56.86
7962;BME280;4026;43.652;24.906;2022-08-19T05:20:32;98839.81;;;27.18;56.82
7962;BME280;4026;43.652;24.906;2022-08-19T05:23:16;98845.69;;;27.31;56.35
7962;BME280;4026;43.652;24.906;2022-08-19T05:25:43;98844.22;;;27.59;54.61
7962;BME280;4026;43.652;24.906;2022-08-19T05:28:10;98841.59;;;27.59;55.16
7962;BME280;4026;43.652;24.906;2022-08-19T05:30:37;98834.06;;;27.74;54.54
7962;BME280;4026;43.652;24.906;2022-08-19T05:33:06;98848.59;;;27.89;55.54
7962;BME280;4026;43.652;24.906;2022-08-19T05:35:37;98834.66;;;28.00;55.26
7962;BME280;4026;43.652;24.906;2022-08-19T05:38:05;98841.84;;;28.16;53.98
7962;BME280;4026;43.652;24.906;2022-08-19T05:40:34;98841.50;;;28.25;53.46
7962;BME280;4026;43.652;24.906;2022-08-19T05:43:01;98844.88;;;28.37;54.42
7962;BME280;4026;43.652;24.906;2022-08-19T05:45:28;98840.41;;;28.49;53.87
7962;BME280;4026;43.652;24.906;2022-08-19T05:47:55;98837.53;;;28.51;52.66
7962;BME280;4026;43.652;24.906;2022-08-19T05:50:23;98839.22;;;28.69;53.03
7962;BME280;4026;43.652;24.906;2022-08-19T05:52:53;98834.69;;;28.81;52.01
7962;BME280;4026;43.652;24.906;2022-08-19T05:55:19;98835.28;;;28.83;52.24
7962;BME280;4026;43.652;24.906;2022-08-19T05:57:46;98827.06;;;28.96;51.80
7962;BME280;4026;43.652;24.906;2022-08-19T06:00:14;98834.78;;;29.15;50.54
7962;BME280;4026;43.652;24.906;2022-08-19T06:02:41;98843.00;;;29.18;50.44
7962;BME280;4026;43.652;24.906;2022-08-19T06:05:08;98847.88;;;29.43;52.37
7962;BME280;4026;43.652;24.906;2022-08-19T06:07:36;98847.66;;;29.62;51.51
7962;BME280;4026;43.652;24.906;2022-08-19T06:10:06;98846.78;;;29.56;51.82
7962;BME280;4026;43.652;24.906;2022-08-19T06:12:34;98846.06;;;29.77;51.39
7962;BME280;4026;43.652;24.906;2022-08-19T06:15:04;98846.44;;;29.86;49.56
7962;BME280;4026;43.652;24.906;2022-08-19T06:17:31;98849.66;;;29.88;49.89
7962;BME280;4026;43.652;24.906;2022-08-19T06:20:00;98846.53;;;29.91;49.64
7962;BME280;4026;43.652;24.906;2022-08-19T06:22:28;98857.63;;;29.93;49.55
7962;BME280;4026;43.652;24.906;2022-08-19T06:24:55;98854.13;;;30.10;48.92
7962;BME280;4026;43.652;24.906;2022-08-19T06:27:24;98850.63;;;30.21;48.97
7962;BME280;4026;43.652;24.906;2022-08-19T06:29:51;98855.59;;;30.39;48.83
7962;BME280;4026;43.652;24.906;2022-08-19T06:32:18;98857.22;;;30.67;49.24
7962;BME280;4026;43.652;24.906;2022-08-19T06:34:45;98858.63;;;30.75;49.25
7962;BME280;4026;43.652;24.906;2022-08-19T06:37:12;98861.16;;;30.87;46.75
7962;BME280;4026;43.652;24.906;2022-08-19T06:39:41;98860.16;;;30.93;46.46
7962;BME280;4026;43.652;24.906;2022-08-19T06:42:10;98862.66;;;31.05;46.67
7962;BME280;4026;43.652;24.906;2022-08-19T06:44:42;98855.31;;;31.12;46.46
7962;BME280;4026;43.652;24.906;2022-08-19T06:47:11;98861.16;;;31.14;46.41
7962;BME280;4026;43.652;24.906;2022-08-19T06:49:39;98865.22;;;31.27;46.96
7962;BME280;4026;43.652;24.906;2022-08-19T06:52:07;98862.34;;;31.28;45.24
7962;BME280;4026;43.652;24.906;2022-08-19T06:54:37;98858.06;;;31.22;46.09
7962;BME280;4026;43.652;24.906;2022-08-19T06:57:05;98842.78;;;31.29;47.23
7962;BME280;4026;43.652;24.906;2022-08-19T06:59:33;98856.16;;;31.45;46.96
7962;BME280;4026;43.652;24.906;2022-08-19T07:02:04;98847.09;;;31.35;46.54
7962;BME280;4026;43.652;24.906;2022-08-19T07:04:32;98856.19;;;31.50;46.66
7962;BME280;4026;43.652;24.906;2022-08-19T07:07:01;98856.78;;;31.57;45.51
7962;BME280;4026;43.652;24.906;2022-08-19T07:09:28;98856.94;;;31.83;46.30
7962;BME280;4026;43.652;24.906;2022-08-19T07:11:56;98852.31;;;32.05;45.73
7962;BME280;4026;43.652;24.906;2022-08-19T07:14:24;98856.84;;;32.10;45.58
7962;BME280;4026;43.652;24.906;2022-08-19T07:16:53;98855.84;;;32.21;45.95
7962;BME280;4026;43.652;24.906;2022-08-19T07:19:24;98856.66;;;32.27;45.07
7962;BME280;4026;43.652;24.906;2022-08-19T07:21:52;98867.34;;;32.52;45.14
7962;BME280;4026;43.652;24.906;2022-08-19T07:24:21;98863.19;;;32.77;44.79
7962;BME280;4026;43.652;24.906;2022-08-19T07:26:51;98862.41;;;32.86;42.43
7962;BME280;4026;43.652;24.906;2022-08-19T07:29:19;98873.75;;;32.61;43.68
7962;BME280;4026;43.652;24.906;2022-08-19T07:31:48;98864.25;;;32.76;42.56
7962;BME280;4026;43.652;24.906;2022-08-19T07:34:16;98876.16;;;32.78;44.42
7962;BME280;4026;43.652;24.906;2022-08-19T07:36:45;98875.41;;;32.93;41.26
7962;BME280;4026;43.652;24.906;2022-08-19T07:39:16;98866.94;;;32.96;42.23
7962;BME280;4026;43.652;24.906;2022-08-19T07:41:44;98872.56;;;33.05;41.63
7962;BME280;4026;43.652;24.906;2022-08-19T07:44:12;98864.00;;;32.92;41.41
7962;BME280;4026;43.652;24.906;2022-08-19T07:46:42;98871.50;;;33.11;41.99
7962;BME280;4026;43.652;24.906;2022-08-19T07:49:10;98869.09;;;32.99;41.83
7962;BME280;4026;43.652;24.906;2022-08-19T07:51:47;98871.47;;;33.16;43.48
7962;BME280;4026;43.652;24.906;2022-08-19T07:54:14;98867.53;;;33.59;41.96
7962;BME280;4026;43.652;24.906;2022-08-19T07:56:41;98871.75;;;33.86;40.02
7962;BME280;4026;43.652;24.906;2022-08-19T07:59:08;98871.19;;;33.89;39.07
7962;BME280;4026;43.652;24.906;2022-08-19T08:01:35;98873.31;;;33.92;39.84
7962;BME280;4026;43.652;24.906;2022-08-19T08:04:03;98875.88;;;34.23;40.78
7962;BME280;4026;43.652;24.906;2022-08-19T08:06:48;98865.88;;;34.10;39.13
7962;BME280;4026;43.652;24.906;2022-08-19T08:09:37;98862.53;;;34.38;40.22
7962;BME280;4026;43.652;24.906;2022-08-19T08:12:06;98865.06;;;34.74;38.44
7962;BME280;4026;43.652;24.906;2022-08-19T08:14:37;98864.59;;;35.01;40.47
7962;BME280;4026;43.652;24.906;2022-08-19T08:17:05;98869.13;;;35.01;38.96
7962;BME280;4026;43.652;24.906;2022-08-19T08:19:32;98863.44;;;34.78;37.68
7962;BME280;4026;43.652;24.906;2022-08-19T08:22:01;98865.66;;;34.61;38.95
7962;BME280;4026;43.652;24.906;2022-08-19T08:24:30;98859.00;;;35.08;37.41
7962;BME280;4026;43.652;24.906;2022-08-19T08:26:59;98861.66;;;35.08;37.74
7962;BME280;4026;43.652;24.906;2022-08-19T08:29:28;98864.28;;;35.13;38.22
7962;BME280;4026;43.652;24.906;2022-08-19T08:31:56;98857.16;;;34.59;37.20
7962;BME280;4026;43.652;24.906;2022-08-19T08:34:23;98857.38;;;35.12;38.91
7962;BME280;4026;43.652;24.906;2022-08-19T08:36:50;98855.69;;;35.26;37.88
7962;BME280;4026;43.652;24.906;2022-08-19T08:39:20;98855.44;;;35.57;37.08
7962;BME280;4026;43.652;24.906;2022-08-19T08:41:53;98849.94;;;35.43;38.95
7962;BME280;4026;43.652;24.906;2022-08-19T08:44:37;98852.69;;;35.67;37.26
7962;BME280;4026;43.652;24.906;2022-08-19T08:47:11;98854.97;;;35.15;37.16
7962;BME280;4026;43.652;24.906;2022-08-19T08:49:43;98850.09;;;35.23;35.89
7962;BME280;4026;43.652;24.906;2022-08-19T08:52:15;98850.44;;;35.16;38.51
7962;BME280;4026;43.652;24.906;2022-08-19T08:54:48;98853.34;;;35.49;38.65
7962;BME280;4026;43.652;24.906;2022-08-19T08:57:23;98856.47;;;35.61;38.05
7962;BME280;4026;43.652;24.906;2022-08-19T08:59:53;98845.88;;;35.51;38.31
7962;BME280;4026;43.652;24.906;2022-08-19T09:02:22;98844.13;;;35.94;38.36
7962;BME280;4026;43.652;24.906;2022-08-19T09:04:49;98845.06;;;36.09;38.77
7962;BME280;4026;43.652;24.906;2022-08-19T09:07:30;98844.59;;;36.25;36.80
7962;BME280;4026;43.652;24.906;2022-08-19T09:10:10;98842.13;;;36.10;35.40
7962;BME280;4026;43.652;24.906;2022-08-19T09:12:46;98850.59;;;35.64;37.24
7962;BME280;4026;43.652;24.906;2022-08-19T09:15:24;98846.75;;;35.75;37.39
7962;BME280;4026;43.652;24.906;2022-08-19T09:17:53;98836.81;;;36.10;38.49
7962;BME280;4026;43.652;24.906;2022-08-19T09:20:22;98832.63;;;36.42;36.24
7962;BME280;4026;43.652;24.906;2022-08-19T09:22:49;98838.09;;;36.56;36.26
7962;BME280;4026;43.652;24.906;2022-08-19T09:25:19;98841.03;;;36.92;37.54
7962;BME280;4026;43.652;24.906;2022-08-19T09:27:47;98845.44;;;37.02;37.44
7962;BME280;4026;43.652;24.906;2022-08-19T09:30:17;98837.16;;;37.03;34.72
7962;BME280;4026;43.652;24.906;2022-08-19T09:32:45;98837.88;;;37.23;35.69
7962;BME280;4026;43.652;24.906;2022-08-19T09:35:12;98842.94;;;37.24;35.08
7962;BME280;4026;43.652;24.906;2022-08-19T09:37:40;98834.75;;;36.83;35.15
7962;BME280;4026;43.652;24.906;2022-08-19T09:40:09;98832.81;;;37.07;35.74
7962;BME280;4026;43.652;24.906;2022-08-19T09:42:38;98830.19;;;37.35;36.25
7962;BME280;4026;43.652;24.906;2022-08-19T09:45:06;98830.56;;;37.47;34.69
7962;BME280;4026;43.652;24.906;2022-08-19T09:47:32;98832.94;;;37.63;34.27
7962;BME280;4026;43.652;24.906;2022-08-19T09:50:01;98826.72;;;37.21;34.91
7962;BME280;4026;43.652;24.906;2022-08-19T09:52:28;98832.03;;;37.07;35.72
7962;BME280;4026;43.652;24.906;2022-08-19T09:54:55;98826.38;;;37.08;34.95
7962;BME280;4026;43.652;24.906;2022-08-19T09:57:22;98819.00;;;37.19;34.97
7962;BME280;4026;43.652;24.906;2022-08-19T09:59:50;98817.06;;;37.25;33.65
7962;BME280;4026;43.652;24.906;2022-08-19T10:02:18;98813.09;;;37.22;34.42
7962;BME280;4026;43.652;24.906;2022-08-19T10:04:45;98827.13;;;36.95;34.45
7962;BME280;4026;43.652;24.906;2022-08-19T10:07:30;98813.88;;;37.23;33.54
7962;BME280;4026;43.652;24.906;2022-08-19T10:09:57;98812.13;;;37.32;34.17
7962;BME280;4026;43.652;24.906;2022-08-19T10:12:23;98813.09;;;36.70;34.63
7962;BME280;4026;43.652;24.906;2022-08-19T10:14:52;98815.09;;;36.79;34.26
7962;BME280;4026;43.652;24.906;2022-08-19T10:17:19;98806.63;;;37.42;34.24
7962;BME280;4026;43.652;24.906;2022-08-19T10:19:46;98806.69;;;37.37;33.56
7962;BME280;4026;43.652;24.906;2022-08-19T10:22:13;98814.78;;;36.99;35.41
7962;BME280;4026;43.652;24.906;2022-08-19T10:24:40;98801.81;;;37.11;34.94
7962;BME280;4026;43.652;24.906;2022-08-19T10:27:07;98805.03;;;37.41;33.45
7962;BME280;4026;43.652;24.906;2022-08-19T10:29:35;98802.13;;;36.91;33.29
7962;BME280;4026;43.652;24.906;2022-08-19T10:32:05;98797.28;;;37.26;36.59
7962;BME280;4026;43.652;24.906;2022-08-19T10:34:34;98797.28;;;37.26;32.96
7962;BME280;4026;43.652;24.906;2022-08-19T10:37:02;98807.78;;;37.36;35.32
7962;BME280;4026;43.652;24.906;2022-08-19T10:39:30;98791.03;;;37.49;32.80
7962;BME280;4026;43.652;24.906;2022-08-19T10:41:57;98790.84;;;37.59;33.50
7962;BME280;4026;43.652;24.906;2022-08-19T10:44:24;98798.97;;;37.82;35.11
7962;BME280;4026;43.652;24.906;2022-08-19T10:46:52;98805.25;;;37.86;36.19
7962;BME280;4026;43.652;24.906;2022-08-19T10:49:20;98801.41;;;37.51;34.49
7962;BME280;4026;43.652;24.906;2022-08-19T10:51:49;98792.63;;;37.92;34.09
7962;BME280;4026;43.652;24.906;2022-08-19T10:54:36;98785.09;;;37.52;33.53
7962;BME280;4026;43.652;24.906;2022-08-19T10:57:20;98783.91;;;37.72;33.50
7962;BME280;4026;43.652;24.906;2022-08-19T10:59:49;98781.16;;;37.64;32.09
7962;BME280;4026;43.652;24.906;2022-08-19T11:02:16;98779.38;;;37.87;33.50
7962;BME280;4026;43.652;24.906;2022-08-19T11:04:44;98775.13;;;37.44;33.05
7962;BME280;4026;43.652;24.906;2022-08-19T11:07:11;98776.31;;;37.79;34.86
7962;BME280;4026;43.652;24.906;2022-08-19T11:09:41;98773.84;;;37.83;33.50
7962;BME280;4026;43.652;24.906;2022-08-19T11:12:08;98773.47;;;37.62;32.69
7962;BME280;4026;43.652;24.906;2022-08-19T11:14:36;98766.75;;;37.65;34.38
7962;BME280;4026;43.652;24.906;2022-08-19T11:17:04;98778.69;;;37.53;33.47
7962;BME280;4026;43.652;24.906;2022-08-19T11:19:32;98777.06;;;37.25;32.86
7962;BME280;4026;43.652;24.906;2022-08-19T11:22:00;98775.97;;;37.26;32.42
7962;BME280;4026;43.652;24.906;2022-08-19T11:24:28;98767.56;;;37.19;34.48
7962;BME280;4026;43.652;24.906;2022-08-19T11:27:01;98762.75;;;37.34;31.44
7962;BME280;4026;43.652;24.906;2022-08-19T11:29:30;98760.34;;;37.05;34.33
7962;BME280;4026;43.652;24.906;2022-08-19T11:31:58;98765.16;;;37.50;33.71
7962;BME280;4026;43.652;24.906;2022-08-19T11:34:27;98751.91;;;37.58;31.41
7962;BME280;4026;43.652;24.906;2022-08-19T11:36:55;98760.97;;;37.30;33.70
7962;BME280;4026;43.652;24.906;2022-08-19T11:39:27;98748.81;;;37.37;34.06
7962;BME280;4026;43.652;24.906;2022-08-19T11:41:57;98753.28;;;37.42;33.71
7962;BME280;4026;43.652;24.906;2022-08-19T11:44:25;98754.84;;;37.15;34.15
7962;BME280;4026;43.652;24.906;2022-08-19T11:46:53;98746.44;;;37.22;33.34
7962;BME280;4026;43.652;24.906;2022-08-19T11:49:20;98745.38;;;37.37;32.69
7962;BME280;4026;43.652;24.906;2022-08-19T11:51:48;98743.13;;;37.72;34.47
7962;BME280;4026;43.652;24.906;2022-08-19T11:54:15;98747.75;;;37.80;32.59
7962;BME280;4026;43.652;24.906;2022-08-19T11:56:44;98740.84;;;37.65;32.49
7962;BME280;4026;43.652;24.906;2022-08-19T11:59:13;98747.72;;;37.11;31.72
7962;BME280;4026;43.652;24.906;2022-08-19T12:01:40;98746.34;;;37.13;34.00
7962;BME280;4026;43.652;24.906;2022-08-19T12:04:07;98733.63;;;37.24;33.10
7962;BME280;4026;43.652;24.906;2022-08-19T12:06:37;98737.78;;;37.44;33.26
7962;BME280;4026;43.652;24.906;2022-08-19T12:09:07;98731.13;;;37.28;34.00
7962;BME280;4026;43.652;24.906;2022-08-19T12:11:35;98733.19;;;37.17;33.61
7962;BME280;4026;43.652;24.906;2022-08-19T12:14:04;98728.19;;;37.43;32.94
7962;BME280;4026;43.652;24.906;2022-08-19T12:16:31;98725.81;;;37.55;34.84
7962;BME280;4026;43.652;24.906;2022-08-19T12:18:59;98726.00;;;37.45;34.52
7962;BME280;4026;43.652;24.906;2022-08-19T12:21:30;98723.34;;;37.31;32.65
7962;BME280;4026;43.652;24.906;2022-08-19T12:23:59;98724.03;;;37.09;33.79
7962;BME280;4026;43.652;24.906;2022-08-19T12:26:27;98721.13;;;37.06;33.46
7962;BME280;4026;43.652;24.906;2022-08-19T12:28:55;98711.75;;;37.08;32.45
7962;BME280;4026;43.652;24.906;2022-08-19T12:31:25;98719.50;;;36.91;33.23
7962;BME280;4026;43.652;24.906;2022-08-19T12:33:53;98717.91;;;36.76;33.84
7962;BME280;4026;43.652;24.906;2022-08-19T12:36:20;98718.59;;;36.82;34.67
7962;BME280;4026;43.652;24.906;2022-08-19T12:38:48;98714.03;;;36.68;33.90
7962;BME280;4026;43.652;24.906;2022-08-19T12:41:16;98718.78;;;36.71;32.94
7962;BME280;4026;43.652;24.906;2022-08-19T12:43:44;98715.09;;;36.67;33.56
7962;BME280;4026;43.652;24.906;2022-08-19T12:46:11;98706.22;;;36.58;34.53
7962;BME280;4026;43.652;24.906;2022-08-19T12:48:41;98709.03;;;36.81;33.45
7962;BME280;4026;43.652;24.906;2022-08-19T12:51:12;98705.78;;;36.84;33.66
7962;BME280;4026;43.652;24.906;2022-08-19T12:53:41;98710.09;;;36.80;32.04
7962;BME280;4026;43.652;24.906;2022-08-19T12:56:10;98702.69;;;36.77;32.70
7962;BME280;4026;43.652;24.906;2022-08-19T12:58:38;98695.63;;;36.53;33.24
7962;BME280;4026;43.652;24.906;2022-08-19T13:01:08;98701.19;;;36.57;34.12
7962;BME280;4026;43.652;24.906;2022-08-19T13:03:36;98699.78;;;36.59;33.73
7962;BME280;4026;43.652;24.906;2022-08-19T13:06:05;98700.41;;;36.70;34.72
7962;BME280;4026;43.652;24.906;2022-08-19T13:08:32;98697.88;;;36.79;33.73
7962;BME280;4026;43.652;24.906;2022-08-19T13:11:07;98700.38;;;36.89;33.87
7962;BME280;4026;43.652;24.906;2022-08-19T13:13:33;98709.69;;;36.72;33.13
7962;BME280;4026;43.652;24.906;2022-08-19T13:16:01;98699.41;;;36.14;33.27
7962;BME280;4026;43.652;24.906;2022-08-19T13:18:29;98695.53;;;35.82;33.28